createdAt,value
2018-11-03T00:04:05.494Z,98.75
2018-11-03T00:06:32.699Z,98.78
2018-11-03T00:08:59.876Z,99.29
2018-11-03T00:32:59.530Z,98.02
2018-11-03T00:35:27.209Z,98.10
2018-11-03T00:37:53.632Z,98.33
2018-11-03T00:40:21.471Z,98.52
2018-11-03T01:13:34.092Z,97.90
2018-11-03T01:52:09.963Z,98.17
2018-11-03T01:54:36.473Z,98.75
2018-11-03T01:57:03.255Z,99.59
2018-11-03T01:59:30.014Z,99.50
2018-11-03T02:01:56.479Z,99.48
2018-11-03T02:04:23.945Z,99.47
2018-11-03T02:06:50.536Z,99.48
2018-11-03T03:48:50.906Z,100.00
2018-11-03T03:51:17.363Z,100.00
2018-11-03T04:11:49.072Z,100.00
2018-11-03T04:14:15.535Z,100.00
2018-11-03T04:22:16.545Z,100.00
2018-11-03T04:50:20.041Z,100.00
2018-11-03T04:52:46.518Z,100.00
2018-11-03T04:55:13.261Z,100.00
2018-11-03T04:57:39.893Z,100.00
2018-11-03T05:00:06.310Z,100.00
2018-11-03T05:02:32.781Z,100.00
2018-11-03T05:04:59.266Z,100.00
2018-11-03T05:07:25.970Z,100.00
2018-11-03T10:21:00.118Z,86.91
2018-11-03T10:23:27.624Z,85.68
2018-11-03T10:25:55.694Z,85.61
2018-11-03T10:28:23.504Z,85.66
2018-11-03T10:30:50.310Z,85.64
2018-11-03T11:10:18.577Z,76.14
2018-11-03T12:38:30.705Z,67.19
2018-11-03T12:44:27.485Z,67.21
2018-11-03T13:32:08.548Z,64.47
2018-11-03T13:36:56.561Z,64.13
2018-11-03T13:39:23.253Z,64.08
2018-11-03T13:56:02.045Z,63.10
2018-11-03T14:05:13.186Z,60.99
2018-11-03T14:09:57.680Z,60.05
2018-11-03T14:52:18.910Z,39.53
2018-11-03T14:54:45.308Z,39.68
2018-11-03T14:57:14.234Z,38.28
2018-11-03T14:59:40.635Z,40.50
2018-11-03T15:44:03.698Z,56.59
2018-11-03T15:46:30.393Z,60.82
2018-11-03T15:48:56.825Z,64.95
2018-11-03T15:56:15.473Z,73.61
2018-11-03T16:14:44.469Z,68.95
2018-11-03T16:45:57.743Z,86.64
2018-11-03T16:59:08.307Z,86.56
2018-11-03T17:01:35.485Z,86.57
2018-11-03T17:04:02.400Z,85.83
2018-11-03T17:06:28.825Z,85.62
2018-11-03T17:08:55.230Z,84.90
2018-11-03T18:10:49.439Z,88.38
2018-11-03T18:13:15.941Z,88.72
2018-11-03T18:15:43.213Z,88.92
2018-11-03T18:18:10.182Z,88.41
2018-11-03T18:20:39.683Z,88.02
2018-11-03T18:42:36.687Z,87.53
2018-11-03T18:54:47.410Z,88.20
2018-11-03T18:59:51.634Z,88.67
2018-11-03T19:02:18.131Z,88.79
2018-11-03T19:04:44.549Z,88.78
2018-11-03T19:07:11.604Z,89.37
2018-11-03T19:16:33.499Z,88.10
2018-11-03T19:19:02.157Z,87.99
2018-11-03T19:21:28.590Z,87.90
2018-11-03T19:23:55.252Z,89.11
2018-11-03T19:26:25.081Z,90.12
2018-11-03T19:28:51.487Z,91.91
2018-11-03T19:31:17.893Z,92.23
2018-11-03T19:33:46.197Z,93.11
2018-11-03T19:36:13.427Z,92.91
2018-11-03T19:38:40.343Z,93.02
2018-11-03T19:41:07.044Z,92.84
2018-11-03T19:43:33.441Z,93.70
2018-11-03T19:45:59.852Z,93.79
2018-11-03T19:48:26.718Z,93.68
2018-11-03T19:50:53.919Z,93.84
2018-11-03T19:53:20.351Z,94.69
2018-11-03T19:58:18.446Z,91.14
2018-11-03T20:00:44.850Z,90.63
2018-11-03T20:05:44.348Z,89.09
2018-11-03T20:08:11.543Z,87.95
2018-11-03T20:10:43.210Z,87.60
2018-11-03T20:13:09.642Z,87.43
2018-11-03T20:15:36.052Z,86.92
2018-11-03T20:18:02.863Z,85.74
2018-11-03T20:20:29.358Z,87.20
2018-11-03T21:02:31.941Z,89.47
2018-11-03T21:04:58.386Z,89.74
2018-11-03T21:07:27.560Z,88.96
2018-11-03T21:09:56.126Z,89.63
2018-11-03T21:12:24.173Z,89.64
2018-11-03T21:14:53.197Z,89.92
2018-11-03T21:17:20.353Z,89.62
2018-11-03T21:19:49.083Z,89.41
2018-11-03T21:22:19.504Z,89.77
2018-11-03T21:24:46.678Z,89.08
2018-11-03T21:27:13.078Z,89.34
2018-11-03T21:29:39.846Z,90.39
2018-11-03T21:32:07.808Z,90.98
2018-11-03T21:34:34.850Z,90.80
2018-11-03T21:37:01.594Z,90.38
2018-11-03T21:39:29.878Z,90.15
2018-11-03T21:41:56.302Z,91.51
2018-11-03T21:44:23.277Z,91.58
2018-11-03T21:46:50.444Z,92.55
2018-11-03T21:49:20.295Z,93.27
2018-11-03T21:51:47.160Z,93.27
2018-11-03T21:54:15.218Z,92.36
2018-11-03T21:56:41.615Z,91.97
2018-11-03T21:59:10.219Z,92.50
2018-11-03T22:01:37.201Z,92.56
2018-11-03T22:04:03.622Z,92.38
2018-11-03T22:06:30.450Z,92.11
2018-11-03T22:08:58.536Z,92.13
2018-11-03T22:11:31.462Z,93.02
2018-11-03T22:13:58.282Z,93.07
2018-11-03T22:16:25.856Z,93.06
2018-11-03T22:18:52.250Z,92.16
2018-11-03T22:21:21.622Z,92.44
2018-11-03T22:23:52.634Z,92.50
2018-11-03T22:26:19.077Z,92.08
2018-11-03T22:31:19.431Z,91.11
2018-11-03T22:33:46.506Z,89.77
2018-11-03T22:36:13.335Z,90.76
2018-11-03T22:38:40.536Z,92.07
2018-11-03T22:41:09.771Z,92.95
2018-11-03T22:43:37.293Z,93.61
2018-11-03T22:46:05.088Z,93.33
2018-11-03T22:48:31.598Z,93.66
2018-11-03T22:53:41.451Z,95.49
2018-11-03T22:56:08.015Z,96.53
2018-11-03T22:58:35.507Z,96.85
2018-11-03T23:01:02.111Z,97.34
2018-11-03T23:06:18.533Z,96.39
2018-11-03T23:08:45.333Z,97.07
2018-11-03T23:11:12.541Z,97.19
2018-11-03T23:13:40.542Z,97.08
2018-11-03T23:18:59.359Z,97.59
2018-11-03T23:21:25.862Z,96.96
2018-11-03T23:23:55.562Z,97.03
2018-11-03T23:26:22.648Z,97.82
2018-11-03T23:28:49.761Z,97.83
2018-11-03T23:31:16.743Z,97.28
2018-11-03T23:33:43.689Z,97.17
2018-11-03T23:36:10.179Z,97.23
2018-11-03T23:38:37.150Z,97.61
2018-11-03T23:41:11.135Z,97.87
